• Join FlightAware (Why Join?)
  • Login
  • US Flag 
02:21PM EDT


 

Airport Tracker/Info


-or-


 

Live Flight TrackerFlight Track Log ✈ AKX1695 ✈ 29-Apr-2013 ✈ RJOO / ITM - RJSF / FKS

Flight Track Log - Related Links

Times and Time Zones

All times are in EDT time to prevent confusion due to time zone crossing. See the AKX1695 flight status page for this flight to view local times or setup timezone preferences in your user account.

Time Position Orientation Groundspeed Altitude Reporting Facility
EDT Latitude Longitude Course Direction KTS MPH feet Rate Location/Type
02:17AM 36.0559 137.9439 57° Northeast  Level Estimated
02:18AM 36.1056 138.0458 59° Northeast  Level Estimated
02:19AM 36.1552 138.1478 59° Northeast  Level Estimated
02:20AM 36.2048 138.2499 59° Northeast  Level Estimated
02:21AM 36.2542 138.3522 59° Northeast  Level Estimated
02:22AM 36.3036 138.4546 59° Northeast  Level Estimated
02:23AM 36.3529 138.5571 59° Northeast  Level Estimated
02:24AM 36.4021 138.6598 59° Northeast  Level Estimated
02:25AM 36.4512 138.7626 59° Northeast  Level Estimated
02:26AM 36.5003 138.8655 59° Northeast  Level Estimated
02:27AM 36.5492 138.9685 59° Northeast  Level Estimated
02:28AM 36.5980 139.0717 59° Northeast  Level Estimated
02:29AM 36.6468 139.1750 60° Northeast  Level Estimated
02:30AM 36.6955 139.2785 60° Northeast  Level Estimated
02:31AM 36.7440 139.3820 60° Northeast  Level Estimated
02:32AM 36.7925 139.4857 60° Northeast  Level Estimated
02:33AM 36.8409 139.5896 60° Northeast  Level Estimated
02:34AM 36.8893 139.6935 60° Northeast  Level Estimated
02:35AM 36.9375 139.7976 60° Northeast  Level Estimated
02:36AM 36.9856 139.9019 60° Northeast  Level Estimated
02:37AM 37.0336 140.0062 60° Northeast  Level Estimated
02:38AM 37.0816 140.1107 60° Northeast  Level Estimated
02:39AM 37.1294 140.2153 60° Northeast  Level Estimated
02:40AM 37.1772 140.3201 60° Northeast  Level Estimated
02:41AM 37.2248 140.4250 60° Northeast  Level Estimated
02:42AM 37.2274 140.4307 60° Northeast  Level Estimated
02:43AM 37.2274 140.4307 302° West  Level Estimated
02:44AM 37.2274 140.4307 302° West  Level Estimated
02:45AM 37.2274 140.4307 302° West  Level Estimated
02:46AM 37.2274 140.4307 302° West  Level Estimated
02:47AM 37.2274 140.4307 302° West  Level Estimated
02:48AM 37.2274 140.4307 302° West  Level Estimated
02:49AM 37.2274 140.4307 302° West  Level Estimated
02:50AM 37.2274 140.4307 302° West  Level Estimated
02:51AM 37.2274 140.4307 302° West  Level Estimated
02:52AM 37.2274 140.4307 302° West  Level Estimated
02:53AM 37.2274 140.4307 302° West  Level Estimated
02:54AM 37.2274 140.4307 302° West  Level Estimated
02:55AM 37.2274 140.4307 302° West  Level Estimated
02:56AM 37.2274 140.4307 302° West  Level Estimated
02:57AM 37.2274 140.4307 302° West  Level Estimated